createdAt,value
2023-01-17T00:02:14.204Z,93.97
2023-01-17T00:05:00.338Z,93.92
2023-01-17T00:07:46.663Z,94.05
2023-01-17T00:10:17.400Z,94.23
2023-01-17T00:12:57.046Z,93.96
2023-01-17T00:15:25.647Z,93.84
2023-01-17T00:17:53.546Z,93.58
2023-01-17T00:20:42.613Z,93.36
2023-01-17T00:23:33.237Z,93.81
2023-01-17T00:26:03.260Z,94.00
2023-01-17T00:28:36.215Z,93.28
2023-01-17T00:31:05.010Z,93.41
2023-01-17T00:33:32.072Z,93.73
2023-01-17T00:36:00.232Z,93.11
2023-01-17T00:38:29.714Z,93.83
2023-01-17T00:41:05.870Z,93.38
2023-01-17T00:43:51.241Z,93.61
2023-01-17T00:46:37.002Z,93.47
2023-01-17T00:49:23.077Z,93.60
2023-01-17T00:52:08.711Z,93.19
2023-01-17T00:54:54.344Z,93.58
2023-01-17T00:57:39.809Z,93.23
2023-01-17T01:00:26.051Z,93.10
2023-01-17T01:03:11.574Z,92.40
2023-01-17T01:05:56.963Z,92.76
2023-01-17T01:08:44.688Z,92.38
2023-01-17T01:11:33.686Z,92.61
2023-01-17T01:14:19.737Z,92.30
2023-01-17T01:17:05.636Z,92.65
2023-01-17T01:19:51.497Z,92.64
2023-01-17T01:22:36.832Z,92.99
2023-01-17T01:25:22.865Z,92.17
2023-01-17T01:28:08.414Z,92.50
2023-01-17T01:30:53.940Z,92.42
2023-01-17T01:33:20.778Z,92.49
2023-01-17T01:35:56.782Z,91.96
2023-01-17T01:38:26.306Z,92.34
2023-01-17T01:40:56.070Z,92.69
2023-01-17T01:43:49.122Z,92.65
2023-01-17T01:46:41.159Z,92.20
2023-01-17T01:49:25.832Z,92.16
2023-01-17T01:51:58.496Z,92.25
2023-01-17T01:54:37.215Z,92.25
2023-01-17T01:57:07.692Z,92.53
2023-01-17T01:59:41.110Z,92.53
2023-01-17T02:02:08.769Z,92.76
2023-01-17T02:04:36.231Z,92.23
2023-01-17T02:07:12.539Z,92.14
2023-01-17T02:09:39.446Z,92.94
2023-01-17T02:12:07.453Z,92.85
2023-01-17T02:14:34.345Z,92.57
2023-01-17T02:17:04.256Z,93.53
2023-01-17T02:20:05.052Z,92.89
2023-01-17T02:23:09.655Z,92.79
2023-01-17T02:26:14.707Z,92.38
2023-01-17T02:28:50.233Z,92.57
2023-01-17T02:31:52.254Z,92.29
2023-01-17T02:34:26.335Z,92.14
2023-01-17T02:37:19.712Z,91.42
2023-01-17T02:39:56.654Z,91.60
2023-01-17T02:42:26.750Z,91.31
2023-01-17T02:44:53.653Z,90.82
2023-01-17T02:47:27.068Z,90.57
2023-01-17T02:50:02.246Z,91.10
2023-01-17T02:53:07.804Z,91.53
2023-01-17T02:55:55.240Z,90.80
2023-01-17T02:58:59.249Z,91.24
2023-01-17T03:01:44.157Z,90.55
2023-01-17T03:04:29.363Z,90.01
2023-01-17T03:07:03.879Z,90.47
2023-01-17T03:09:31.851Z,90.28
2023-01-17T03:11:59.754Z,90.30
2023-01-17T03:14:26.766Z,90.37
2023-01-17T03:16:53.739Z,89.77
2023-01-17T03:19:20.678Z,89.36
2023-01-17T03:21:49.416Z,90.07
2023-01-17T03:24:16.569Z,90.50
2023-01-17T03:26:47.980Z,90.94
2023-01-17T03:29:16.698Z,91.14
2023-01-17T03:31:43.780Z,91.27
2023-01-17T03:34:10.740Z,91.00
2023-01-17T03:36:37.700Z,91.07
2023-01-17T03:39:04.654Z,91.32
2023-01-17T03:41:31.606Z,90.86
2023-01-17T03:43:58.574Z,91.08
2023-01-17T03:46:27.588Z,90.81
2023-01-17T03:48:55.017Z,90.58
2023-01-17T03:51:22.126Z,90.72
2023-01-17T03:53:50.114Z,90.78
2023-01-17T03:56:17.052Z,90.36
2023-01-17T03:58:44.104Z,91.13
2023-01-17T04:01:11.632Z,90.91
2023-01-17T04:03:38.940Z,90.79
2023-01-17T04:06:06.114Z,90.83
2023-01-17T04:08:33.183Z,91.64
2023-01-17T04:11:00.150Z,91.41
2023-01-17T04:13:27.083Z,91.94
2023-01-17T04:15:54.004Z,92.20
2023-01-17T04:18:23.161Z,91.71
2023-01-17T04:20:50.918Z,91.89
2023-01-17T04:23:18.657Z,91.52
2023-01-17T04:25:45.660Z,90.96
2023-01-17T04:28:12.750Z,91.04
2023-01-17T04:30:39.712Z,91.18
2023-01-17T04:33:06.675Z,91.06
2023-01-17T04:35:33.766Z,90.93
2023-01-17T04:38:01.033Z,90.98
2023-01-17T04:40:29.721Z,90.80
2023-01-17T04:42:57.955Z,90.67
2023-01-17T04:45:25.119Z,90.80
2023-01-17T04:47:52.113Z,90.90
2023-01-17T04:50:19.067Z,90.81
2023-01-17T04:52:46.062Z,90.49
2023-01-17T04:55:13.147Z,90.86
2023-01-17T04:57:40.068Z,91.25
2023-01-17T05:00:07.730Z,91.63
2023-01-17T05:02:34.769Z,91.94
2023-01-17T05:05:01.680Z,92.86
2023-01-17T05:07:30.379Z,92.09
2023-01-17T05:09:57.320Z,92.45
2023-01-17T05:12:24.208Z,92.13
2023-01-17T05:14:51.485Z,92.95
2023-01-17T05:17:18.396Z,92.48
2023-01-17T05:19:45.521Z,91.91
2023-01-17T05:22:16.589Z,91.81
2023-01-17T05:24:47.443Z,91.65
2023-01-17T05:27:15.287Z,91.20
2023-01-17T05:29:42.374Z,91.67
2023-01-17T05:32:09.428Z,91.26
2023-01-17T05:34:36.415Z,91.55
2023-01-17T05:37:03.355Z,91.13
2023-01-17T05:39:31.145Z,91.72
2023-01-17T05:41:59.114Z,91.49
2023-01-17T05:44:27.835Z,91.61
2023-01-17T05:46:55.167Z,92.32
2023-01-17T05:49:22.253Z,91.77
2023-01-17T05:51:49.475Z,92.43
2023-01-17T05:54:16.545Z,92.65
2023-01-17T05:56:44.004Z,92.14
2023-01-17T05:59:13.948Z,92.76
2023-01-17T06:01:40.993Z,93.32
2023-01-17T06:04:07.942Z,92.96
2023-01-17T06:06:34.791Z,92.75
2023-01-17T06:09:01.870Z,92.99
2023-01-17T06:11:28.896Z,92.47
2023-01-17T06:13:55.772Z,92.50
2023-01-17T06:16:22.766Z,92.51
2023-01-17T06:18:49.662Z,91.92
2023-01-17T06:21:16.525Z,92.15
2023-01-17T06:23:43.405Z,91.82
2023-01-17T06:26:11.155Z,92.19
2023-01-17T06:28:38.060Z,92.41
2023-01-17T06:31:09.308Z,92.79
2023-01-17T06:33:36.359Z,93.08
2023-01-17T06:36:03.587Z,93.71
2023-01-17T06:38:30.476Z,93.88
2023-01-17T06:41:00.601Z,93.32
2023-01-17T06:43:32.650Z,93.04
2023-01-17T06:46:01.057Z,93.59
2023-01-17T06:48:28.259Z,93.04
2023-01-17T06:50:57.073Z,93.01
2023-01-17T06:53:24.042Z,93.31
2023-01-17T06:55:52.633Z,93.04
2023-01-17T06:58:19.481Z,92.16
2023-01-17T07:00:46.672Z,91.68
2023-01-17T07:03:20.927Z,91.99
2023-01-17T07:05:48.879Z,92.48
2023-01-17T07:08:17.160Z,91.92
2023-01-17T07:10:45.344Z,92.14
2023-01-17T07:13:12.991Z,92.04
2023-01-17T07:15:40.437Z,92.00
2023-01-17T07:18:08.102Z,91.82
2023-01-17T07:20:35.037Z,92.29
2023-01-17T07:23:01.984Z,92.62
2023-01-17T07:25:28.917Z,91.85
2023-01-17T07:27:57.882Z,91.40
2023-01-17T07:30:25.480Z,92.23
2023-01-17T07:32:54.806Z,92.42
2023-01-17T07:35:22.898Z,92.43
2023-01-17T07:37:50.914Z,92.40
2023-01-17T07:40:20.116Z,91.82
2023-01-17T07:42:47.577Z,91.88
2023-01-17T07:45:16.562Z,92.30
2023-01-17T07:47:43.677Z,92.62
2023-01-17T07:50:11.540Z,91.29
2023-01-17T07:52:38.619Z,91.92
2023-01-17T07:55:06.305Z,92.26
2023-01-17T07:57:33.307Z,91.74
2023-01-17T08:00:00.324Z,91.52
2023-01-17T08:02:27.293Z,91.67
2023-01-17T08:04:54.130Z,91.14
2023-01-17T08:07:21.033Z,91.11
2023-01-17T08:09:49.904Z,90.89
2023-01-17T08:12:17.155Z,91.74
2023-01-17T08:14:44.649Z,90.85
2023-01-17T08:17:14.648Z,91.89
2023-01-17T08:19:41.628Z,91.34
2023-01-17T08:22:08.703Z,91.65
2023-01-17T08:24:35.625Z,92.36
2023-01-17T08:27:02.571Z,92.13
2023-01-17T08:29:29.664Z,92.29
2023-01-17T08:31:56.561Z,92.61
2023-01-17T08:34:23.619Z,92.54
2023-01-17T08:36:52.989Z,93.26
2023-01-17T08:39:21.066Z,92.56
2023-01-17T08:41:48.028Z,93.31
2023-01-17T08:44:15.934Z,93.16
2023-01-17T08:46:44.407Z,92.89
2023-01-17T08:49:12.581Z,92.73
2023-01-17T08:51:40.405Z,92.92
2023-01-17T08:54:09.583Z,92.22
2023-01-17T08:56:36.465Z,92.43
2023-01-17T08:59:03.605Z,91.89
2023-01-17T09:01:30.666Z,92.29
2023-01-17T09:03:57.681Z,91.70
2023-01-17T09:06:24.768Z,91.77
2023-01-17T09:08:54.752Z,91.27
2023-01-17T09:11:21.754Z,91.28
2023-01-17T09:13:48.608Z,90.64
2023-01-17T09:16:15.538Z,90.69
2023-01-17T09:18:42.435Z,90.39
2023-01-17T09:21:14.148Z,90.97
2023-01-17T09:23:41.758Z,91.21
2023-01-17T09:26:19.137Z,90.84
2023-01-17T09:28:46.193Z,90.95
2023-01-17T09:31:13.888Z,91.18
2023-01-17T09:33:43.074Z,91.34
2023-01-17T09:36:11.505Z,91.49
2023-01-17T09:38:38.846Z,91.38
2023-01-17T09:41:30.704Z,91.29
2023-01-17T09:43:57.656Z,91.21
2023-01-17T09:46:29.727Z,90.75
2023-01-17T09:49:22.308Z,91.17
2023-01-17T09:51:49.236Z,91.02
2023-01-17T09:54:36.279Z,91.13
2023-01-17T09:57:47.033Z,91.58
2023-01-17T10:00:30.387Z,91.75
2023-01-17T10:03:09.421Z,91.58
2023-01-17T10:05:57.886Z,91.01
2023-01-17T10:08:38.015Z,91.08
2023-01-17T10:11:15.271Z,90.77
2023-01-17T10:14:00.737Z,91.06
2023-01-17T10:16:49.427Z,90.62
2023-01-17T10:19:29.311Z,91.01
2023-01-17T10:22:20.051Z,90.56
2023-01-17T10:25:13.246Z,90.51
2023-01-17T10:28:24.956Z,90.85
2023-01-17T10:30:58.309Z,90.84
2023-01-17T10:33:29.104Z,91.21
2023-01-17T10:35:59.692Z,90.91
2023-01-17T10:38:36.094Z,91.64
2023-01-17T10:41:17.221Z,91.34
2023-01-17T10:44:02.702Z,91.52
2023-01-17T10:46:44.060Z,91.51
2023-01-17T10:49:23.521Z,91.09
2023-01-17T10:52:02.707Z,90.99
2023-01-17T10:54:49.666Z,90.97
2023-01-17T10:57:21.674Z,90.73
2023-01-17T10:59:49.279Z,90.91
2023-01-17T11:02:24.889Z,91.11
2023-01-17T11:04:54.890Z,91.47
2023-01-17T11:07:27.439Z,91.53
2023-01-17T11:09:56.609Z,90.90
2023-01-17T11:12:29.535Z,91.32
2023-01-17T11:15:05.376Z,91.21
2023-01-17T11:17:33.938Z,90.78
2023-01-17T11:20:20.255Z,91.13
2023-01-17T11:23:06.543Z,91.02
2023-01-17T11:25:34.531Z,90.44
2023-01-17T11:28:05.744Z,90.90
2023-01-17T11:30:32.827Z,90.89
2023-01-17T11:33:06.232Z,90.22
2023-01-17T11:35:44.118Z,90.25
2023-01-17T11:38:13.637Z,90.65
2023-01-17T11:41:20.351Z,90.53
2023-01-17T11:43:56.614Z,90.31
2023-01-17T11:46:24.451Z,90.19
2023-01-17T11:48:56.063Z,90.22
2023-01-17T11:51:35.055Z,90.22
2023-01-17T11:54:39.672Z,89.78
2023-01-17T11:57:17.788Z,89.75
2023-01-17T11:59:45.305Z,89.67
2023-01-17T12:03:00.098Z,89.74
2023-01-17T12:05:53.706Z,89.41
2023-01-17T12:09:00.644Z,89.50
2023-01-17T12:12:06.740Z,89.28
2023-01-17T12:14:55.025Z,89.12
2023-01-17T12:17:27.603Z,89.42
2023-01-17T12:20:06.301Z,89.41
2023-01-17T12:22:58.113Z,89.19
2023-01-17T12:25:28.976Z,89.20
2023-01-17T12:27:59.969Z,88.99
2023-01-17T12:31:11.961Z,89.06
2023-01-17T12:33:46.153Z,88.66
2023-01-17T12:36:37.178Z,88.42
2023-01-17T12:39:10.232Z,88.38
2023-01-17T12:41:50.918Z,88.33
2023-01-17T12:44:21.781Z,88.52
2023-01-17T12:46:59.028Z,88.35
2023-01-17T12:49:42.978Z,87.94
2023-01-17T12:52:34.659Z,88.42
2023-01-17T12:55:09.798Z,88.37
2023-01-17T12:57:45.439Z,88.29
2023-01-17T13:00:23.165Z,88.36
2023-01-17T13:02:56.782Z,88.13
2023-01-17T13:05:37.302Z,88.07
2023-01-17T13:08:15.758Z,88.09
2023-01-17T13:10:52.154Z,87.65
2023-01-17T13:13:28.180Z,87.86
2023-01-17T13:16:13.315Z,87.73
2023-01-17T13:18:46.394Z,87.90
2023-01-17T13:21:16.354Z,87.62
2023-01-17T13:24:07.849Z,87.32
2023-01-17T13:27:02.590Z,87.53
2023-01-17T13:29:52.391Z,87.51
2023-01-17T13:32:38.081Z,87.64
2023-01-17T13:35:16.328Z,87.77
2023-01-17T13:38:04.157Z,87.36
2023-01-17T13:40:49.700Z,87.00
2023-01-17T13:43:30.569Z,86.70
2023-01-17T13:46:01.389Z,86.82
2023-01-17T13:48:31.755Z,86.63
2023-01-17T13:51:06.461Z,86.14
2023-01-17T13:53:39.119Z,86.89
2023-01-17T13:56:27.762Z,86.17
2023-01-17T13:59:02.821Z,86.00
2023-01-17T14:01:34.853Z,86.47
2023-01-17T14:04:04.902Z,85.96
2023-01-17T14:06:41.177Z,86.18
2023-01-17T14:09:08.111Z,86.32
2023-01-17T14:11:52.824Z,86.16
2023-01-17T14:14:44.538Z,86.46
2023-01-17T14:17:23.734Z,86.11
2023-01-17T14:19:51.419Z,86.20
2023-01-17T14:22:21.055Z,86.05
2023-01-17T14:25:15.158Z,85.79
2023-01-17T14:27:50.070Z,85.55
2023-01-17T14:30:17.568Z,85.58
2023-01-17T14:33:17.009Z,85.75
2023-01-17T14:35:54.454Z,85.57
2023-01-17T14:38:24.563Z,85.22
2023-01-17T14:40:54.496Z,85.44
2023-01-17T14:43:23.865Z,85.06
2023-01-17T14:46:00.824Z,85.02
2023-01-17T14:48:29.018Z,84.98
2023-01-17T14:51:00.170Z,84.63
2023-01-17T14:53:31.624Z,84.50
2023-01-17T14:56:02.249Z,84.41
2023-01-17T14:58:34.390Z,84.15
2023-01-17T15:01:05.273Z,84.34
2023-01-17T15:03:41.961Z,84.67
2023-01-17T15:06:21.911Z,84.30
2023-01-17T15:08:49.533Z,83.77
2023-01-17T15:11:21.146Z,83.98
2023-01-17T15:13:51.481Z,83.71
2023-01-17T15:16:28.169Z,83.64
2023-01-17T15:18:57.429Z,83.42
2023-01-17T15:21:31.273Z,83.27
2023-01-17T15:24:07.149Z,82.83
2023-01-17T15:26:36.169Z,82.71
2023-01-17T15:29:06.556Z,82.14
2023-01-17T15:31:44.116Z,82.36
2023-01-17T15:34:30.844Z,82.36
2023-01-17T15:37:02.420Z,82.38
2023-01-17T15:39:35.990Z,82.96
2023-01-17T15:42:06.698Z,82.67
2023-01-17T15:44:48.941Z,82.26
2023-01-17T15:47:33.070Z,81.52
2023-01-17T15:50:17.892Z,81.63
2023-01-17T15:53:27.720Z,81.98
2023-01-17T15:55:54.817Z,81.82
2023-01-17T15:58:27.847Z,81.95
2023-01-17T16:00:55.630Z,81.79
2023-01-17T16:03:29.455Z,81.65
2023-01-17T16:06:00.253Z,81.63
2023-01-17T16:08:38.617Z,81.66
2023-01-17T16:11:07.900Z,81.87
2023-01-17T16:13:39.325Z,81.77
2023-01-17T16:16:11.501Z,81.72
2023-01-17T16:18:38.853Z,81.45
2023-01-17T16:21:27.168Z,81.23
2023-01-17T16:23:54.269Z,81.33
2023-01-17T16:26:21.542Z,80.89
2023-01-17T16:28:49.369Z,81.37
2023-01-17T16:31:17.064Z,81.73
2023-01-17T16:33:45.985Z,81.89
2023-01-17T16:36:16.845Z,81.64
2023-01-17T16:38:45.452Z,81.43
2023-01-17T16:41:12.598Z,81.51
2023-01-17T16:43:39.560Z,81.85
2023-01-17T16:46:06.721Z,82.18
2023-01-17T16:48:33.791Z,82.06
2023-01-17T16:51:06.408Z,81.79
2023-01-17T16:53:33.553Z,81.85
2023-01-17T16:56:08.895Z,82.00
2023-01-17T16:58:35.819Z,81.81
2023-01-17T17:01:02.815Z,82.07
2023-01-17T17:03:29.931Z,82.02
2023-01-17T17:05:59.502Z,82.53
2023-01-17T17:08:29.632Z,82.40
2023-01-17T17:11:13.173Z,82.82
2023-01-17T17:13:42.091Z,83.25
2023-01-17T17:16:11.311Z,83.39
2023-01-17T17:18:38.349Z,83.49
2023-01-17T17:21:05.363Z,83.54
2023-01-17T17:23:32.332Z,84.03
2023-01-17T17:25:59.288Z,83.98
2023-01-17T17:28:26.270Z,84.74
2023-01-17T17:31:06.062Z,84.89
2023-01-17T17:33:33.189Z,84.93
2023-01-17T17:36:05.488Z,85.17
2023-01-17T17:38:35.096Z,85.69
2023-01-17T17:41:09.943Z,85.95
2023-01-17T17:43:42.848Z,86.07
2023-01-17T17:46:09.900Z,85.86
2023-01-17T17:48:37.220Z,86.13
2023-01-17T17:51:04.783Z,86.06
2023-01-17T17:53:32.478Z,85.91
2023-01-17T17:56:03.922Z,85.76
2023-01-17T17:58:33.145Z,86.77
2023-01-17T18:01:05.002Z,86.75
2023-01-17T18:03:32.889Z,87.47
2023-01-17T18:06:07.729Z,87.11
2023-01-17T18:08:35.985Z,87.20
2023-01-17T18:11:06.236Z,87.27
2023-01-17T18:13:34.174Z,87.17
2023-01-17T18:16:04.877Z,87.60
2023-01-17T18:18:33.062Z,87.57
2023-01-17T18:21:05.713Z,87.54
2023-01-17T18:23:32.627Z,87.31
2023-01-17T18:25:59.540Z,87.77
2023-01-17T18:28:27.380Z,87.57
2023-01-17T18:30:54.279Z,87.14
2023-01-17T18:33:21.231Z,87.18
2023-01-17T18:35:55.936Z,87.22
2023-01-17T18:38:22.815Z,87.12
2023-01-17T18:40:49.662Z,87.29
2023-01-17T18:43:16.617Z,87.26
2023-01-17T18:45:43.488Z,87.26
2023-01-17T18:48:12.031Z,87.47
2023-01-17T18:50:38.910Z,87.59
2023-01-17T18:53:05.927Z,87.30
2023-01-17T18:55:32.823Z,87.46
2023-01-17T18:57:59.765Z,87.33
2023-01-17T19:00:26.678Z,87.48
2023-01-17T19:02:53.777Z,87.34
2023-01-17T19:05:21.725Z,87.59
2023-01-17T19:07:48.604Z,87.47
2023-01-17T19:10:15.762Z,88.11
2023-01-17T19:12:42.648Z,88.31
2023-01-17T19:15:10.091Z,88.89
2023-01-17T19:17:36.947Z,88.82
2023-01-17T19:20:06.511Z,88.82
2023-01-17T19:22:33.387Z,88.97
2023-01-17T19:25:00.336Z,88.57
2023-01-17T19:27:27.336Z,88.64
2023-01-17T19:29:54.387Z,89.20
2023-01-17T19:32:21.272Z,89.16
2023-01-17T19:34:48.111Z,88.71
2023-01-17T19:37:15.003Z,88.07
2023-01-17T19:39:41.868Z,88.85
2023-01-17T19:42:15.467Z,88.75
2023-01-17T19:44:42.896Z,89.11
2023-01-17T19:47:12.771Z,88.82
2023-01-17T19:49:44.432Z,88.22
2023-01-17T19:52:11.343Z,88.43
2023-01-17T19:54:38.225Z,88.10
2023-01-17T19:57:05.195Z,88.21
2023-01-17T19:59:32.120Z,88.36
2023-01-17T20:02:01.220Z,87.76
2023-01-17T20:04:28.422Z,87.89
2023-01-17T20:06:55.347Z,87.94
2023-01-17T20:09:23.912Z,87.58
2023-01-17T20:11:51.302Z,87.62
2023-01-17T20:14:18.270Z,87.54
2023-01-17T20:16:47.591Z,87.16
2023-01-17T20:19:15.395Z,87.12
2023-01-17T20:21:42.273Z,87.15
2023-01-17T20:24:11.023Z,87.28
2023-01-17T20:26:37.906Z,87.05
2023-01-17T20:29:10.365Z,86.79
2023-01-17T20:31:39.177Z,87.17
2023-01-17T20:34:08.129Z,86.84
2023-01-17T20:36:35.171Z,87.15
2023-01-17T20:39:04.798Z,86.98
2023-01-17T20:41:34.388Z,86.91
2023-01-17T20:44:03.295Z,86.44
2023-01-17T20:46:35.767Z,87.26
2023-01-17T20:49:05.580Z,86.72
2023-01-17T20:51:34.535Z,87.18
2023-01-17T20:54:04.770Z,86.90
2023-01-17T20:56:34.784Z,87.63
2023-01-17T20:59:06.247Z,86.94
2023-01-17T21:01:34.516Z,87.00
2023-01-17T21:04:01.812Z,86.92
2023-01-17T21:06:29.115Z,86.94
2023-01-17T21:08:56.149Z,86.71
2023-01-17T21:11:25.436Z,86.71
2023-01-17T21:13:52.516Z,86.01
2023-01-17T21:16:23.043Z,86.58
2023-01-17T21:18:51.636Z,85.83
2023-01-17T21:21:24.288Z,86.42
2023-01-17T21:23:53.754Z,87.30
2023-01-17T21:26:22.481Z,88.41
2023-01-17T21:28:50.785Z,90.18
2023-01-17T21:31:27.204Z,90.71
2023-01-17T21:33:59.601Z,91.27
2023-01-17T21:36:29.643Z,90.74
2023-01-17T21:38:58.618Z,90.84
2023-01-17T21:41:30.260Z,91.91
2023-01-17T21:44:00.630Z,90.65
2023-01-17T21:46:29.176Z,91.47
2023-01-17T21:48:58.875Z,91.72
2023-01-17T21:51:45.712Z,91.61
2023-01-17T21:54:12.794Z,91.51
2023-01-17T21:56:58.480Z,91.78
2023-01-17T21:59:25.413Z,90.62
2023-01-17T22:01:52.365Z,90.44
2023-01-17T22:04:19.312Z,90.60
2023-01-17T22:06:46.700Z,90.01
2023-01-17T22:09:15.185Z,89.75
2023-01-17T22:11:42.156Z,90.13
2023-01-17T22:14:09.175Z,89.82
2023-01-17T22:16:36.177Z,90.12
2023-01-17T22:19:03.100Z,90.09
2023-01-17T22:21:29.996Z,89.74
2023-01-17T22:23:59.348Z,88.97
2023-01-17T22:26:28.953Z,89.65
2023-01-17T22:28:56.557Z,89.91
2023-01-17T22:31:26.411Z,89.25
2023-01-17T22:33:58.836Z,89.38
2023-01-17T22:36:26.629Z,89.48
2023-01-17T22:38:53.621Z,88.78
2023-01-17T22:41:23.511Z,88.92
2023-01-17T22:43:52.689Z,88.71
2023-01-17T22:46:23.468Z,89.59
2023-01-17T22:48:52.284Z,89.60
2023-01-17T22:51:20.712Z,89.06
2023-01-17T22:53:53.199Z,89.13
2023-01-17T22:56:22.611Z,89.76
2023-01-17T22:58:50.297Z,89.62
2023-01-17T23:01:23.001Z,89.47
2023-01-17T23:03:55.720Z,89.43
2023-01-17T23:06:35.238Z,90.01
2023-01-17T23:09:05.457Z,89.83
2023-01-17T23:11:43.563Z,89.17
2023-01-17T23:15:06.398Z,89.53
2023-01-17T23:17:51.817Z,89.73
2023-01-17T23:20:18.880Z,89.54
2023-01-17T23:22:45.844Z,89.48
2023-01-17T23:25:14.269Z,89.78
2023-01-17T23:28:00.847Z,89.79
2023-01-17T23:30:34.667Z,89.63
2023-01-17T23:33:03.489Z,90.27
2023-01-17T23:35:33.128Z,89.58
2023-01-17T23:38:18.769Z,89.73
2023-01-17T23:41:08.862Z,90.37
2023-01-17T23:43:36.960Z,90.21
2023-01-17T23:46:04.917Z,90.12
2023-01-17T23:48:31.908Z,90.44
2023-01-17T23:51:01.118Z,89.25
2023-01-17T23:53:28.608Z,90.09
2023-01-17T23:56:06.213Z,89.82
2023-01-17T23:58:34.205Z,90.23
